Time;durP1;ratioP1;P1;durP2;ratioP2;P2;SDS_P1;SDS_P2;PMS_P1;PMS_P2;Temp;Humidity;BMP_temperature;BMP_pressure;BME280_temperature;BME280_humidity;BME280_pressure;Samples;Min_cycle;Max_cycle;Signal;HPM_P1;HPM_P2
2021/09/03 00:00:19;;;;;;;28.40;11.70;;;;;;;9.95;76.47;101341.55;1616648;87;26734;-79
2021/09/03 00:02:48;;;;;;;;;;;;;;;9.93;76.44;101331.50;1631287;86;26926;-79
2021/09/03 00:05:18;;;;;;;20.82;8.90;;;;;;;9.87;76.54;101331.67;1648563;86;25878;-80
2021/09/03 00:07:47;;;;;;;14.93;7.90;;;;;;;9.83;76.78;101327.66;1620594;87;25883;-79
2021/09/03 00:10:17;;;;;;;16.60;7.70;;;;;;;9.84;76.89;101327.13;1608076;86;26310;-79
2021/09/03 00:12:45;;;;;;;11.25;6.08;;;;;;;9.81;76.81;101325.65;1628325;86;25811;-79
2021/09/03 00:15:14;;;;;;;10.80;6.20;;;;;;;9.80;76.90;101332.48;1628540;87;27515;-79
2021/09/03 00:17:42;;;;;;;9.20;5.60;;;;;;;9.79;76.97;101326.81;1583937;87;25894;-79
2021/09/03 00:20:12;;;;;;;13.65;6.33;;;;;;;9.79;77.12;101329.48;1626074;87;25851;-79
2021/09/03 00:22:40;;;;;;;8.75;5.25;;;;;;;9.81;77.22;101336.35;1625994;86;25839;-79
2021/09/03 00:25:09;;;;;;;9.43;5.67;;;;;;;9.79;77.31;101328.98;1628775;87;25951;-79
2021/09/03 00:27:38;;;;;;;12.80;6.90;;;;;;;9.78;77.15;101326.45;1592584;87;26994;-79
2021/09/03 00:30:08;;;;;;;12.35;6.97;;;;;;;9.73;77.06;101322.93;1625869;87;26060;-78
2021/09/03 00:32:35;;;;;;;12.18;6.00;;;;;;;9.72;77.13;101317.26;1631476;86;25823;-79
2021/09/03 00:35:03;;;;;;;9.55;5.03;;;;;;;9.68;77.27;101314.58;1648716;86;25961;-79
2021/09/03 00:37:30;;;;;;;10.03;5.65;;;;;;;9.67;77.18;101312.05;1607051;86;26257;-79
2021/09/03 00:39:57;;;;;;;8.60;5.45;;;;;;;9.63;77.00;101309.36;1579383;86;27693;-79
2021/09/03 00:42:25;;;;;;;10.50;5.30;;;;;;;9.57;77.16;101312.20;1626622;86;26397;-80
2021/09/03 00:44:52;;;;;;;7.10;5.05;;;;;;;9.53;77.23;101314.02;1650606;86;26534;-79
2021/09/03 00:47:19;;;;;;;10.93;4.67;;;;;;;9.48;77.10;101309.65;1598355;87;26599;-79
2021/09/03 00:49:46;;;;;;;7.42;4.65;;;;;;;9.42;77.10;101305.80;1604429;86;25940;-79
2021/09/03 00:52:13;;;;;;;8.43;4.12;;;;;;;9.38;77.02;101303.12;1608346;86;27501;-79
2021/09/03 00:54:41;;;;;;;9.10;4.62;;;;;;;9.30;76.87;101301.23;1622222;86;25886;-79
2021/09/03 00:57:09;;;;;;;6.20;3.90;;;;;;;9.23;76.97;101301.56;1607171;87;26529;-79
2021/09/03 00:59:36;;;;;;;10.53;5.30;;;;;;;9.19;77.07;101302.05;1624343;86;26520;-79
2021/09/03 01:02:03;;;;;;;13.83;7.40;;;;;;;9.18;77.04;101300.35;1607746;86;25890;-79
2021/09/03 01:04:31;;;;;;;8.83;6.03;;;;;;;9.18;77.24;101295.01;1605425;87;27556;-79
2021/09/03 01:06:58;;;;;;;10.15;5.40;;;;;;;9.18;77.42;101290.50;1600917;86;26067;-79
2021/09/03 01:09:25;;;;;;;8.15;4.97;;;;;;;9.17;77.37;101294.16;1599486;87;26502;-78
2021/09/03 01:11:52;;;;;;;10.82;5.72;;;;;;;9.15;77.33;101294.83;1629997;86;26638;-79
2021/09/03 01:14:19;;;;;;;9.08;5.40;;;;;;;9.12;77.16;101294.32;1646088;86;25873;-79
2021/09/03 01:16:47;;;;;;;13.32;6.00;;;;;;;9.06;77.19;101294.97;1607885;86;27594;-79
2021/09/03 01:19:14;;;;;;;9.83;6.83;;;;;;;9.03;77.32;101294.78;1606308;86;25905;-79
2021/09/03 01:21:41;;;;;;;17.65;7.60;;;;;;;9.03;77.38;101292.11;1599509;86;25863;-81
2021/09/03 01:24:08;;;;;;;11.48;6.85;;;;;;;9.05;77.44;101288.77;1650114;86;26510;-79
2021/09/03 01:26:36;;;;;;;12.45;6.60;;;;;;;9.07;77.62;101284.59;1605957;86;25812;-79
2021/09/03 01:29:03;;;;;;;11.78;6.17;;;;;;;9.08;77.81;101276.93;1607724;86;27666;-80
2021/09/03 01:31:30;;;;;;;10.00;6.20;;;;;;;9.10;77.97;101279.79;1629851;86;25832;-79
2021/09/03 01:33:57;;;;;;;10.85;6.17;;;;;;;9.11;78.09;101275.29;1629665;86;26696;-79
2021/09/03 01:36:29;;;;;;;11.35;6.92;;;;;;;9.11;78.24;101268.08;1586162;86;26519;-79
2021/09/03 01:38:57;;;;;;;13.08;6.33;;;;;;;9.15;78.43;101275.30;1605408;86;25855;-79
2021/09/03 01:41:25;;;;;;;13.43;7.78;;;;;;;9.17;78.58;101273.30;1632883;86;27557;-79
2021/09/03 01:43:52;;;;;;;9.90;6.58;;;;;;;9.18;78.50;101271.80;1626228;86;26749;-79
2021/09/03 01:46:20;;;;;;;12.30;6.42;;;;;;;9.17;78.38;101271.44;1629195;86;25354;-79
2021/09/03 01:48:47;;;;;;;13.40;6.92;;;;;;;9.15;78.39;101269.95;1604785;87;25968;-79
2021/09/03 01:51:14;;;;;;;11.03;6.58;;;;;;;9.12;78.35;101265.77;1651961;86;25867;-79
2021/09/03 01:53:41;;;;;;;13.78;7.33;;;;;;;9.08;78.29;101261.74;1610642;86;28724;-79
2021/09/03 01:56:09;;;;;;;10.93;6.75;;;;;;;9.07;78.46;101258.72;1605775;86;25857;-79
2021/09/03 01:58:35;;;;;;;11.90;6.00;;;;;;;9.06;78.23;101263.73;1586866;86;25955;-79
2021/09/03 02:01:03;;;;;;;10.68;6.08;;;;;;;9.04;78.32;101253.72;1648331;85;25864;-79
2021/09/03 02:03:30;;;;;;;11.93;7.08;;;;;;;8.99;78.03;101251.16;1625983;86;25392;-79
2021/09/03 02:05:58;;;;;;;12.23;6.83;;;;;;;8.92;78.01;101247.45;1602232;86;27554;-79
2021/09/03 02:08:25;;;;;;;11.73;6.65;;;;;;;8.90;78.37;101251.63;1606652;86;26009;-79
2021/09/03 02:10:52;;;;;;;11.33;6.75;;;;;;;8.93;78.53;101249.14;1626010;86;25963;-79
2021/09/03 02:13:19;;;;;;;12.80;7.08;;;;;;;8.96;78.81;101248.31;1601013;87;25887;-79
2021/09/03 02:15:47;;;;;;;12.25;7.20;;;;;;;8.97;78.51;101245.14;1604182;86;53033;-80
2021/09/03 02:18:15;;;;;;;11.50;7.03;;;;;;;8.91;78.09;101241.30;1606963;86;27453;-79
2021/09/03 02:20:42;;;;;;;12.35;7.22;;;;;;;8.85;78.05;101238.42;1649768;85;25989;-79
2021/09/03 02:23:09;;;;;;;11.33;7.08;;;;;;;8.82;78.22;101230.72;1644774;86;25831;-79
2021/09/03 02:25:36;;;;;;;13.53;7.42;;;;;;;8.84;78.57;101226.89;1596697;86;26460;-79
2021/09/03 02:28:04;;;;;;;12.40;7.70;;;;;;;8.86;79.02;101221.38;1605549;86;25835;-79
2021/09/03 02:30:31;;;;;;;14.65;7.95;;;;;;;8.89;79.27;101218.41;1651522;86;28238;-79
2021/09/03 02:32:58;;;;;;;12.60;7.15;;;;;;;8.95;79.60;101220.42;1647833;86;26563;-79
2021/09/03 02:35:25;;;;;;;14.58;7.90;;;;;;;8.98;79.43;101224.13;1601074;86;25849;-79
2021/09/03 02:37:52;;;;;;;12.45;7.72;;;;;;;9.00;79.63;101216.26;1603497;86;25850;-79
2021/09/03 02:40:19;;;;;;;12.30;6.95;;;;;;;8.99;79.20;101214.59;1646173;86;26522;-79
2021/09/03 02:42:47;;;;;;;13.58;7.30;;;;;;;8.95;78.78;101215.92;1648902;86;28202;-79
2021/09/03 02:45:14;;;;;;;14.93;8.18;;;;;;;8.92;78.77;101208.71;1590560;87;25845;-79
2021/09/03 02:47:41;;;;;;;12.65;7.85;;;;;;;8.90;79.00;101205.36;1605159;86;25914;-79
2021/09/03 02:50:09;;;;;;;14.50;8.53;;;;;;;8.93;79.28;101205.06;1644630;86;26564;-78
2021/09/03 02:52:36;;;;;;;14.83;8.38;;;;;;;8.97;79.58;101200.56;1648323;86;26470;-79
2021/09/03 02:55:04;;;;;;;16.77;9.10;;;;;;;9.00;79.89;101200.75;1596621;86;27515;-80
2021/09/03 02:57:31;;;;;;;12.28;8.15;;;;;;;9.02;80.03;101192.91;1600683;87;25952;-79
2021/09/03 02:59:58;;;;;;;16.20;8.48;;;;;;;9.03;80.02;101191.90;1649915;86;26594;-79
2021/09/03 03:02:25;;;;;;;14.40;7.85;;;;;;;9.02;79.92;101184.90;1647666;86;26594;-79
2021/09/03 03:04:52;;;;;;;15.72;7.47;;;;;;;9.00;79.77;101188.20;1596361;86;25869;-80
2021/09/03 03:07:19;;;;;;;13.25;7.65;;;;;;;8.97;79.63;101187.21;1604897;86;28036;-79
2021/09/03 03:09:46;;;;;;;17.17;8.35;;;;;;;8.94;79.65;101183.52;1629617;86;25837;-79
2021/09/03 03:12:15;;;;;;;13.43;8.03;;;;;;;8.92;79.55;101173.98;1647571;86;25917;-79
2021/09/03 03:14:42;;;;;;;16.73;8.73;;;;;;;8.92;79.70;101169.48;1601705;87;25851;-79
2021/09/03 03:17:09;;;;;;;13.98;8.65;;;;;;;8.91;80.10;101174.99;1621897;87;26274;-79
2021/09/03 03:19:36;;;;;;;17.15;8.88;;;;;;;8.90;80.29;101178.65;1649610;86;27109;-79
2021/09/03 03:22:04;;;;;;;16.32;9.15;;;;;;;8.88;80.30;101176.64;1629838;86;25905;-79
2021/09/03 03:24:31;;;;;;;15.28;9.00;;;;;;;8.86;80.31;101179.48;1599032;87;25757;-79
2021/09/03 03:26:58;;;;;;;18.37;9.48;;;;;;;8.85;80.14;101169.81;1603417;87;26025;-79
2021/09/03 03:29:25;;;;;;;21.23;9.80;;;;;;;8.82;80.21;101166.12;1626262;86;25343;-79
2021/09/03 03:31:52;;;;;;;19.20;10.00;;;;;;;8.81;79.94;101164.95;1648172;86;27527;-79
2021/09/03 03:34:19;;;;;;;18.23;9.55;;;;;;;8.77;79.99;101163.61;1594557;86;25848;-80
2021/09/03 03:36:46;;;;;;;16.48;10.53;;;;;;;8.78;80.00;101167.93;1606919;86;26569;-79
2021/09/03 03:39:14;;;;;;;19.35;10.45;;;;;;;8.80;80.26;101164.11;1646925;86;26467;-79
2021/09/03 03:41:50;;;;;;;22.45;11.65;;;;;;;8.80;79.92;101160.59;1641391;87;25911;-79
2021/09/03 03:44:17;;;;;;;30.27;14.58;;;;;;;8.75;79.87;101158.40;1585650;86;27522;-79
2021/09/03 03:46:45;;;;;;;26.85;13.25;;;;;;;8.74;80.42;101155.41;1599366;86;26090;-79
2021/09/03 03:49:12;;;;;;;24.00;12.58;;;;;;;8.76;80.52;101150.73;1619687;87;25989;-79
2021/09/03 03:51:40;;;;;;;19.27;10.88;;;;;;;8.79;81.06;101148.25;1647574;86;25854;-79
2021/09/03 03:54:07;;;;;;;17.20;10.63;;;;;;;8.81;81.42;101139.58;1618834;87;25357;-79
2021/09/03 03:56:34;;;;;;;18.75;11.18;;;;;;;8.81;81.35;101142.25;1620515;86;27373;-80
2021/09/03 03:59:00;;;;;;;24.02;12.53;;;;;;;8.82;81.63;101142.56;1619900;87;25774;-79
2021/09/03 04:01:28;;;;;;;22.75;11.48;;;;;;;8.84;81.42;101138.73;1585781;90;25380;-79
2021/09/03 04:03:54;;;;;;;48.20;22.17;;;;;;;8.83;81.24;101142.39;1544654;90;26603;-79
2021/09/03 04:06:23;;;;;;;60.38;34.95;;;;;;;8.82;81.52;101138.56;1587969;88;25875;-79
2021/09/03 04:08:50;;;;;;;39.65;25.17;;;;;;;8.83;81.95;101130.90;1612293;88;28245;-79
2021/09/03 04:11:17;;;;;;;21.23;11.93;;;;;;;8.85;82.15;101131.57;1641467;86;25958;-79
2021/09/03 04:13:44;;;;;;;12.03;7.42;;;;;;;8.84;81.44;101122.71;1619723;86;25870;-79
2021/09/03 04:16:11;;;;;;;11.88;6.80;;;;;;;8.82;80.87;101123.87;1604895;86;26017;-79
2021/09/03 04:18:40;;;;;;;13.72;7.30;;;;;;;8.77;80.57;101120.34;1649838;86;26530;-79
2021/09/03 04:21:07;;;;;;;8.95;5.65;;;;;;;8.72;80.42;101124.52;1649930;86;27186;-79
2021/09/03 04:23:34;;;;;;;9.38;5.35;;;;;;;8.70;80.34;101111.33;1606601;86;25965;-79
2021/09/03 04:26:01;;;;;;;8.93;5.20;;;;;;;8.66;80.16;101109.14;1603733;86;25889;-79
2021/09/03 04:28:28;;;;;;;8.70;5.85;;;;;;;8.62;80.21;101104.60;1627197;86;26490;-79
2021/09/03 04:30:55;;;;;;;13.78;6.35;;;;;;;8.61;80.32;101102.11;1622616;86;25824;-80
2021/09/03 04:33:22;;;;;;;13.20;6.30;;;;;;;8.65;80.61;101102.11;1607397;87;27552;-79
2021/09/03 04:35:49;;;;;;;15.60;7.50;;;;;;;8.70;81.14;101101.14;1603689;87;25876;-79
2021/09/03 04:38:16;;;;;;;15.75;7.95;;;;;;;8.75;81.38;101096.97;1648047;86;25844;-79
2021/09/03 04:40:44;;;;;;;16.50;8.75;;;;;;;8.81;81.75;101100.84;1642159;86;25809;-79
2021/09/03 04:43:12;;;;;;;13.85;8.53;;;;;;;8.86;81.90;101096.67;1606968;86;25394;-79
2021/09/03 04:45:38;;;;;;;13.70;8.10;;;;;;;8.91;82.08;101098.86;1621379;86;27419;-79
2021/09/03 04:48:06;;;;;;;14.28;8.53;;;;;;;8.95;82.51;101103.70;1645647;86;25902;-79
2021/09/03 04:50:33;;;;;;;13.75;7.80;;;;;;;9.00;82.76;101101.89;1629638;86;25609;-79
2021/09/03 04:53:00;;;;;;;17.60;8.35;;;;;;;9.05;83.24;101100.88;1613242;86;25879;-80
2021/09/03 04:55:27;;;;;;;14.33;8.28;;;;;;;9.10;83.28;101099.89;1604693;86;26011;-79
2021/09/03 04:57:54;;;;;;;14.25;8.23;;;;;;;9.15;83.68;101093.03;1649355;86;27447;-78
2021/09/03 05:00:22;;;;;;;16.62;9.20;;;;;;;9.21;84.25;101094.23;1643153;86;25816;-79
2021/09/03 05:02:49;;;;;;;14.40;9.08;;;;;;;9.26;84.26;101094.05;1605116;87;25689;-79
2021/09/03 05:05:17;;;;;;;15.25;8.80;;;;;;;9.33;84.99;101100.41;1603604;86;25812;-80
2021/09/03 05:07:44;;;;;;;15.15;9.25;;;;;;;9.39;85.18;101092.22;1627983;86;25928;-79
2021/09/03 05:10:12;;;;;;;13.93;8.95;;;;;;;9.46;85.38;101089.70;1604710;86;27580;-79
2021/09/03 05:12:40;;;;;;;14.68;8.80;;;;;;;9.54;85.75;101087.05;1627836;86;25635;-80
2021/09/03 05:15:11;;;;;;;17.30;10.10;;;;;;;9.64;86.06;101087.70;1644081;86;25865;-79
2021/09/03 05:17:49;;;;;;;13.25;8.83;;;;;;;9.72;86.28;101093.88;1599913;88;25942;-79
2021/09/03 05:20:17;;;;;;;15.10;8.43;;;;;;;9.81;86.65;101091.54;1565921;90;25887;-80
2021/09/03 05:22:45;;;;;;;16.62;8.95;;;;;;;9.90;86.56;101089.16;1566022;90;27559;-79
2021/09/03 05:25:14;;;;;;;20.08;8.95;;;;;;;9.99;86.79;101087.30;1593668;89;25766;-79
2021/09/03 05:27:42;;;;;;;13.80;8.33;;;;;;;10.09;86.92;101089.30;1622336;86;26012;-79
2021/09/03 05:30:10;;;;;;;11.55;7.78;;;;;;;10.18;86.85;101085.59;1599930;86;25859;-79
2021/09/03 05:32:38;;;;;;;13.20;7.80;;;;;;;10.28;87.02;101083.58;1598825;86;26037;-79
2021/09/03 05:35:06;;;;;;;12.43;8.15;;;;;;;10.38;87.02;101082.02;1629500;86;28251;-79
2021/09/03 05:37:34;;;;;;;11.95;8.18;;;;;;;10.47;86.95;101080.98;1639804;86;26016;-79
2021/09/03 05:40:03;;;;;;;13.62;8.25;;;;;;;10.57;87.19;101077.08;1629821;86;25912;-80
2021/09/03 05:42:30;;;;;;;15.75;7.92;;;;;;;10.68;87.25;101074.02;1627491;86;25899;-79
2021/09/03 05:44:57;;;;;;;14.85;8.05;;;;;;;10.79;87.08;101067.42;1645486;86;25822;-79
2021/09/03 05:47:24;;;;;;;13.08;7.83;;;;;;;10.89;87.26;101065.34;1607685;86;27427;-79
2021/09/03 05:49:51;;;;;;;15.15;7.78;;;;;;;10.99;86.96;101060.57;1602629;86;25776;-79
2021/09/03 05:52:18;;;;;;;13.38;7.42;;;;;;;11.11;86.81;101054.30;1629503;86;25897;-80
2021/09/03 05:54:45;;;;;;;14.47;7.03;;;;;;;11.23;86.75;101059.06;1648620;86;25939;-80
2021/09/03 05:57:12;;;;;;;17.30;7.03;;;;;;;11.36;86.83;101057.95;1630478;86;25874;-80
2021/09/03 05:59:39;;;;;;;12.60;7.20;;;;;;;11.51;86.52;101052.11;1578889;86;27471;-79
2021/09/03 06:02:06;;;;;;;11.20;6.72;;;;;;;11.64;86.25;101048.80;1604783;86;25371;-80
2021/09/03 06:04:33;;;;;;;13.10;7.05;;;;;;;11.76;86.02;101042.53;1629719;86;25997;-80
2021/09/03 06:07:00;;;;;;;12.65;7.15;;;;;;;11.89;85.70;101042.73;1647145;86;26406;-79
2021/09/03 06:09:27;;;;;;;14.07;7.55;;;;;;;12.01;85.34;101042.58;1627962;87;26674;-79
2021/09/03 06:11:55;;;;;;;18.52;8.18;;;;;;;12.15;85.35;101040.39;1629760;86;28264;-80
2021/09/03 06:14:22;;;;;;;15.80;8.18;;;;;;;12.26;85.13;101031.87;1644540;86;25743;-79
2021/09/03 06:16:50;;;;;;;14.40;7.78;;;;;;;12.38;85.12;101037.91;1627577;86;25937;-79
2021/09/03 06:19:17;;;;;;;14.30;6.53;;;;;;;12.51;85.25;101029.17;1605597;86;25834;-79
2021/09/03 06:21:44;;;;;;;9.60;6.58;;;;;;;12.66;84.90;101034.00;1626648;86;26631;-80
2021/09/03 06:27:07;;;;;;;10.78;6.10;;;;;;;12.93;84.38;101028.41;1626988;86;25942;-79
2021/09/03 06:29:43;;;;;;;11.40;5.75;;;;;;;13.07;84.06;101024.34;1624927;86;26080;-79
2021/09/03 06:32:21;;;;;;;9.05;5.53;;;;;;;13.21;83.52;101021.28;1623994;86;25987;-80
2021/09/03 06:34:52;;;;;;;11.33;6.42;;;;;;;13.34;83.12;101028.62;1628799;86;26016;-79
2021/09/03 06:37:20;;;;;;;9.68;5.28;;;;;;;13.46;82.58;101023.02;1629041;86;27423;-79
2021/09/03 06:39:49;;;;;;;8.80;5.00;;;;;;;13.57;82.32;101017.95;1607758;86;26132;-79
2021/09/03 06:42:16;;;;;;;9.40;5.25;;;;;;;13.69;82.37;101018.22;1627595;86;25847;-79
2021/09/03 06:44:44;;;;;;;9.53;5.42;;;;;;;13.83;82.23;101014.61;1570305;90;26791;-79
2021/09/03 06:47:12;;;;;;;10.35;5.05;;;;;;;13.96;81.91;101012.50;1600970;88;25901;-79
2021/09/03 06:49:41;;;;;;;8.30;5.22;;;;;;;14.07;81.14;101007.91;1599298;87;27582;-79
2021/09/03 06:52:10;;;;;;;10.90;5.15;;;;;;;14.17;81.17;101002.47;1616632;86;25963;-79
2021/09/03 06:54:38;;;;;;;10.18;5.50;;;;;;;14.30;81.09;101003.91;1649695;86;25673;-79
2021/09/03 06:57:05;;;;;;;12.80;6.17;;;;;;;14.42;80.20;101002.29;1628823;86;26265;-79
2021/09/03 06:59:32;;;;;;;8.48;4.25;;;;;;;14.53;80.02;100998.17;1604985;86;25951;-79
2021/09/03 07:01:59;;;;;;;8.45;5.05;;;;;;;14.63;79.22;100999.45;1626598;86;28336;-80
2021/09/03 07:04:27;;;;;;;9.43;5.10;;;;;;;14.74;78.85;100994.48;1649459;86;25832;-79
2021/09/03 07:06:54;;;;;;;8.55;5.55;;;;;;;14.83;78.58;101002.70;1642896;86;25856;-79
2021/09/03 07:09:21;;;;;;;11.20;5.12;;;;;;;14.91;77.35;100997.95;1607297;86;26567;-80
2021/09/03 07:11:48;;;;;;;9.78;4.83;;;;;;;15.00;76.99;100998.59;1627212;86;25843;-80
2021/09/03 07:14:17;;;;;;;15.95;5.03;;;;;;;15.07;76.75;100997.58;1650043;86;27496;-79
2021/09/03 07:16:43;;;;;;;7.90;4.17;;;;;;;15.17;76.91;100994.45;1627800;86;26319;-79
2021/09/03 07:19:11;;;;;;;8.20;3.77;;;;;;;15.26;76.80;100996.75;1576428;87;25892;-79
2021/09/03 07:21:38;;;;;;;7.65;4.20;;;;;;;15.37;76.20;100996.65;1628482;86;25942;-80
2021/09/03 07:24:05;;;;;;;9.25;4.35;;;;;;;15.46;75.79;100998.65;1647532;86;25858;-79
2021/09/03 07:26:33;;;;;;;8.05;4.20;;;;;;;15.55;76.02;100994.67;1625002;87;27550;-79
2021/09/03 07:29:02;;;;;;;12.07;4.15;;;;;;;15.65;75.67;100998.63;1605621;85;25921;-80
2021/09/03 07:31:29;;;;;;;8.68;3.67;;;;;;;15.76;75.05;100997.97;1641954;86;26583;-79
2021/09/03 07:33:56;;;;;;;9.13;3.90;;;;;;;15.84;74.19;100995.58;1628598;86;26005;-80
2021/09/03 07:36:23;;;;;;;7.47;3.90;;;;;;;15.93;73.89;100994.31;1607113;86;25941;-81
2021/09/03 07:38:50;;;;;;;6.83;3.02;;;;;;;16.03;73.81;100982.53;1606364;86;27089;-79
2021/09/03 07:41:17;;;;;;;8.50;3.37;;;;;;;16.14;73.33;100977.83;1623624;87;25835;-80
2021/09/03 07:43:44;;;;;;;10.00;4.00;;;;;;;16.23;73.16;100978.41;1646411;86;25965;-79
2021/09/03 07:46:11;;;;;;;7.10;3.55;;;;;;;16.31;72.85;100972.76;1625879;86;25985;-80
2021/09/03 07:48:38;;;;;;;8.95;3.40;;;;;;;16.41;72.40;100973.12;1606517;86;25896;-79
2021/09/03 07:51:05;;;;;;;7.70;3.27;;;;;;;16.50;72.75;100970.00;1623926;86;28282;-79
2021/09/03 07:53:35;;;;;;;5.78;3.37;;;;;;;16.61;72.33;100967.12;1649238;86;26525;-79
2021/09/03 07:56:03;;;;;;;6.87;3.23;;;;;;;16.70;70.56;100966.63;1625025;86;25868;-80
2021/09/03 07:58:30;;;;;;;6.83;3.17;;;;;;;16.79;71.03;100956.38;1586913;86;25789;-79
2021/09/03 08:00:59;;;;;;;6.50;2.92;;;;;;;16.90;71.18;100951.63;1605094;86;26776;-80
2021/09/03 08:03:26;;;;;;;10.63;3.67;;;;;;;17.01;70.74;100951.44;1650155;86;27520;-79
2021/09/03 08:05:53;;;;;;;9.98;4.33;;;;;;;17.10;70.24;100948.77;1625153;86;26605;-80
2021/09/03 08:08:21;;;;;;;11.48;5.78;;;;;;;17.19;69.75;100939.33;1586754;86;26688;-80
2021/09/03 08:10:47;;;;;;;9.25;4.55;;;;;;;17.30;69.42;100943.48;1623905;86;25790;-80
2021/09/03 08:13:15;;;;;;;12.47;5.42;;;;;;;17.39;69.27;100939.97;1649990;86;26414;-80
2021/09/03 08:15:43;;;;;;;12.03;5.70;;;;;;;17.46;69.54;100938.03;1627188;86;27290;-80
2021/09/03 08:18:10;;;;;;;13.20;6.15;;;;;;;17.53;68.64;100933.42;1606709;86;25923;-80
2021/09/03 08:20:38;;;;;;;9.33;5.40;;;;;;;17.58;68.44;100941.16;1607355;87;25946;-80
2021/09/03 08:23:05;;;;;;;10.63;4.50;;;;;;;17.65;69.27;100939.73;1643905;86;26763;-80
2021/09/03 08:25:32;;;;;;;10.18;5.10;;;;;;;17.76;68.66;100938.17;1632358;86;26716;-79
2021/09/03 08:28:00;;;;;;;4.22;2.70;;;;;;;17.81;68.38;100927.48;1606682;86;27610;-80
2021/09/03 08:30:27;;;;;;;8.75;4.30;;;;;;;17.88;67.70;100927.70;1628562;86;25831;-80
2021/09/03 08:32:54;;;;;;;11.55;4.78;;;;;;;17.93;67.66;100926.50;1651637;86;25858;-80
2021/09/03 08:35:22;;;;;;;8.30;4.05;;;;;;;17.96;67.59;100924.71;1627929;86;25966;-80
2021/09/03 08:37:49;;;;;;;9.05;3.58;;;;;;;18.00;66.03;100923.72;1607864;86;25795;-80
2021/09/03 08:40:16;;;;;;;7.53;4.08;;;;;;;18.04;65.79;100929.81;1651760;86;27668;-80
2021/09/03 08:42:43;;;;;;;6.37;2.98;;;;;;;18.08;66.33;100927.47;1648391;86;25776;-80
2021/09/03 08:45:14;;;;;;;12.70;5.20;;;;;;;18.12;65.76;100932.20;1603532;86;25961;-79
2021/09/03 08:47:42;;;;;;;;;;;;;;;18.18;65.45;100932.65;1601633;87;25846;-79
2021/09/03 08:50:12;;;;;;;6.78;3.55;;;;;;;18.24;64.86;100924.95;1649018;86;26004;-80
2021/09/03 08:52:48;;;;;;;8.15;3.87;;;;;;;18.26;64.31;100917.41;1611519;86;28139;-80
2021/09/03 08:55:17;;;;;;;7.10;3.80;;;;;;;18.34;64.34;100913.57;1614824;87;25842;-79
2021/09/03 08:57:44;;;;;;;8.68;3.65;;;;;;;18.39;64.66;100913.72;1608258;86;25964;-79
2021/09/03 09:00:26;;;;;;;8.95;2.95;;;;;;;18.48;64.51;100906.40;1651331;86;26033;-80
2021/09/03 09:03:10;;;;;;;5.30;2.40;;;;;;;18.57;64.65;100897.40;1606508;86;25750;-80
2021/09/03 09:05:56;;;;;;;6.40;2.35;;;;;;;18.61;63.87;100897.23;1646152;86;27492;-80
2021/09/03 09:08:27;;;;;;;3.55;2.47;;;;;;;18.67;63.58;100891.42;1606729;87;25821;-80
2021/09/03 09:10:59;;;;;;;4.78;2.55;;;;;;;18.76;62.45;100895.44;1647456;86;26032;-80
2021/09/03 09:13:33;;;;;;;4.90;2.33;;;;;;;18.82;61.90;100892.61;1626761;86;25835;-80
2021/09/03 09:16:14;;;;;;;3.98;2.00;;;;;;;18.88;62.30;100888.96;1629398;86;25904;-80
2021/09/03 09:18:53;;;;;;;7.30;3.22;;;;;;;18.92;61.64;100883.39;1603902;86;28352;-80
2021/09/03 09:21:33;;;;;;;6.90;3.15;;;;;;;18.93;61.68;100879.59;1643304;86;25798;-79
2021/09/03 09:24:11;;;;;;;7.90;3.80;;;;;;;18.97;59.85;100877.23;1610678;87;25999;-80
2021/09/03 09:26:57;;;;;;;6.60;3.83;;;;;;;19.00;61.09;100874.06;1651421;86;26611;-79
2021/09/03 09:29:28;;;;;;;10.43;7.22;;;;;;;19.05;61.12;100881.78;1607926;86;26049;-80
2021/09/03 09:31:59;;;;;;;4.90;3.20;;;;;;;19.10;61.58;100878.36;1645510;86;27504;-80
2021/09/03 09:34:35;;;;;;;4.70;3.25;;;;;;;19.15;60.48;100872.54;1607386;86;25701;-80
2021/09/03 09:37:07;;;;;;;7.08;2.40;;;;;;;19.20;61.72;100863.13;1646156;86;25829;-79
2021/09/03 09:39:56;;;;;;;3.90;2.95;;;;;;;19.25;60.29;100865.97;1606140;87;26438;-79
2021/09/03 09:42:30;;;;;;;6.58;3.20;;;;;;;19.29;59.18;100846.50;1646341;86;26803;-79
2021/09/03 09:45:04;;;;;;;7.62;2.70;;;;;;;19.32;61.04;100846.84;1611407;85;28286;-79
2021/09/03 09:47:32;;;;;;;6.33;3.08;;;;;;;19.40;61.70;100846.50;1617648;87;26820;-79
2021/09/03 09:50:19;;;;;;;3.85;2.80;;;;;;;19.45;61.69;100827.61;1604099;86;25916;-80
2021/09/03 09:52:46;;;;;;;3.87;2.65;;;;;;;19.49;61.40;100830.13;1650366;86;26597;-80
2021/09/03 09:55:13;;;;;;;4.03;2.92;;;;;;;19.57;60.09;100819.41;1607232;86;25449;-79
2021/09/03 09:57:42;;;;;;;6.00;2.65;;;;;;;19.59;60.50;100820.83;1606833;86;27561;-80
2021/09/03 10:00:11;;;;;;;4.12;2.50;;;;;;;19.65;60.71;100819.06;1607999;86;26054;-80
2021/09/03 10:02:43;;;;;;;5.25;3.20;;;;;;;19.70;60.67;100809.63;1645357;86;25839;-80
2021/09/03 10:05:11;;;;;;;4.78;2.85;;;;;;;19.74;59.77;100816.23;1628423;86;25821;-80
2021/09/03 10:07:39;;;;;;;4.95;3.30;;;;;;;19.78;60.79;100803.28;1628047;87;25826;-79
2021/09/03 10:10:07;;;;;;;4.67;2.95;;;;;;;19.87;61.12;100806.44;1609280;86;27626;-80
2021/09/03 10:12:34;;;;;;;5.45;3.20;;;;;;;19.91;60.26;100800.28;1643375;86;25991;-79
2021/09/03 10:15:01;;;;;;;6.35;3.02;;;;;;;19.99;60.90;100797.16;1607152;86;25897;-81
2021/09/03 10:17:30;;;;;;;6.35;3.35;;;;;;;20.08;60.63;100801.67;1628287;86;26387;-79
2021/09/03 10:19:58;;;;;;;5.85;3.12;;;;;;;20.14;59.68;100795.81;1605583;86;25994;-80
2021/09/03 10:22:26;;;;;;;6.67;3.27;;;;;;;20.16;60.51;100799.11;1649066;86;28332;-80
2021/09/03 10:25:11;;;;;;;3.47;2.85;;;;;;;20.21;60.24;100793.25;1604975;86;25830;-80
2021/09/03 10:27:40;;;;;;;4.33;3.05;;;;;;;20.27;60.58;100800.45;1604330;87;25390;-79
2021/09/03 10:30:18;;;;;;;5.80;2.92;;;;;;;20.34;60.53;100793.46;1608362;86;25871;-81
2021/09/03 10:32:45;;;;;;;5.10;3.05;;;;;;;20.41;60.08;100787.34;1649601;86;25836;-80
2021/09/03 10:35:22;;;;;;;5.15;3.27;;;;;;;20.41;60.02;100780.53;1606365;86;27624;-80
2021/09/03 10:37:50;;;;;;;5.65;3.37;;;;;;;20.45;60.86;100781.16;1572320;90;25869;-80
2021/09/03 10:40:38;;;;;;;2.92;2.62;;;;;;;20.51;59.48;100772.00;1565628;89;25871;-80
2021/09/03 10:43:06;;;;;;;4.83;3.22;;;;;;;20.54;58.83;100770.69;1639966;86;26515;-80
2021/09/03 10:45:39;;;;;;;6.30;3.02;;;;;;;20.57;59.83;100762.84;1600691;87;26827;-79
2021/09/03 10:48:16;;;;;;;3.50;2.90;;;;;;;20.62;60.06;100768.38;1620517;86;28173;-80
2021/09/03 10:50:59;;;;;;;6.05;3.55;;;;;;;20.71;59.76;100774.22;1600105;86;25920;-80
2021/09/03 10:53:37;;;;;;;4.75;3.10;;;;;;;20.76;59.96;100769.67;1637807;86;25976;-80
2021/09/03 10:56:17;;;;;;;5.87;3.52;;;;;;;20.84;59.05;100769.80;1624388;86;25849;-80
2021/09/03 10:58:53;;;;;;;6.05;2.98;;;;;;;20.83;58.42;100759.17;1632030;86;25516;-80
2021/09/03 11:01:28;;;;;;;4.67;3.50;;;;;;;20.81;57.45;100757.23;1602177;86;27481;-80
2021/09/03 11:04:06;;;;;;;11.22;3.40;;;;;;;20.80;57.31;100752.84;1639860;86;25872;-80
2021/09/03 11:07:00;;;;;;;4.60;3.20;;;;;;;20.78;57.00;100744.38;1621180;87;25583;-79
2021/09/03 11:09:29;;;;;;;5.55;2.55;;;;;;;20.79;58.03;100743.84;1622590;86;25890;-80
2021/09/03 11:12:10;;;;;;;4.42;2.95;;;;;;;20.85;57.86;100737.39;1599861;86;25923;-80
2021/09/03 11:14:43;;;;;;;3.85;2.67;;;;;;;20.89;57.80;100735.02;1638923;86;27542;-79
2021/09/03 11:17:13;;;;;;;3.57;2.80;;;;;;;20.94;57.86;100730.45;1625445;86;26538;-80
2021/09/03 11:19:49;;;;;;;5.58;2.67;;;;;;;21.04;59.02;100733.91;1600781;86;25803;-80
2021/09/03 11:22:20;;;;;;;3.40;2.27;;;;;;;21.09;58.05;100736.67;1619734;86;26580;-81
2021/09/03 11:25:03;;;;;;;4.55;2.72;;;;;;;21.11;56.52;100719.00;1640633;86;26555;-80
2021/09/03 11:27:29;;;;;;;6.15;3.00;;;;;;;21.15;56.97;100724.80;1601482;87;28271;-82
2021/09/03 11:30:01;;;;;;;5.28;3.17;;;;;;;21.20;55.90;100718.02;1615044;86;25852;-80
2021/09/03 11:32:38;;;;;;;4.75;2.98;;;;;;;21.28;57.16;100716.21;1600295;86;25665;-80
2021/09/03 11:35:11;;;;;;;4.62;3.12;;;;;;;21.36;56.55;100715.23;1639417;86;26564;-81